sensor_id;sensor_type;location;lat;lon;timestamp;P1;durP1;ratioP1;P2;durP2;ratioP2
19609;SDS011;9952;47.122;-1.638;2023-02-15T00:03:09;24.80;;;15.43;;
19609;SDS011;9952;47.122;-1.638;2023-02-15T00:07:49;25.80;;;13.93;;
19609;SDS011;9952;47.122;-1.638;2023-02-15T00:12:30;22.60;;;13.80;;
19609;SDS011;9952;47.122;-1.638;2023-02-15T00:17:11;29.83;;;16.03;;
19609;SDS011;9952;47.122;-1.638;2023-02-15T00:21:52;26.43;;;14.93;;
19609;SDS011;9952;47.122;-1.638;2023-02-15T00:26:33;27.20;;;15.70;;
19609;SDS011;9952;47.122;-1.638;2023-02-15T00:31:14;29.60;;;15.30;;
19609;SDS011;9952;47.122;-1.638;2023-02-15T00:35:58;30.70;;;16.53;;
19609;SDS011;9952;47.122;-1.638;2023-02-15T00:40:39;30.93;;;16.00;;
19609;SDS011;9952;47.122;-1.638;2023-02-15T00:45:20;28.60;;;16.10;;
19609;SDS011;9952;47.122;-1.638;2023-02-15T00:50:01;31.60;;;16.47;;
19609;SDS011;9952;47.122;-1.638;2023-02-15T00:54:43;27.40;;;15.30;;
19609;SDS011;9952;47.122;-1.638;2023-02-15T00:59:23;29.63;;;15.77;;
19609;SDS011;9952;47.122;-1.638;2023-02-15T01:04:04;30.60;;;15.77;;
19609;SDS011;9952;47.122;-1.638;2023-02-15T01:08:45;31.37;;;15.33;;
19609;SDS011;9952;47.122;-1.638;2023-02-15T01:13:26;26.23;;;14.87;;
19609;SDS011;9952;47.122;-1.638;2023-02-15T01:18:07;26.83;;;15.40;;
19609;SDS011;9952;47.122;-1.638;2023-02-15T01:22:48;24.17;;;13.83;;
19609;SDS011;9952;47.122;-1.638;2023-02-15T01:27:29;28.50;;;15.47;;
19609;SDS011;9952;47.122;-1.638;2023-02-15T01:32:10;28.83;;;15.67;;
19609;SDS011;9952;47.122;-1.638;2023-02-15T01:36:51;27.80;;;15.60;;
19609;SDS011;9952;47.122;-1.638;2023-02-15T01:41:32;27.47;;;14.53;;
19609;SDS011;9952;47.122;-1.638;2023-02-15T01:46:14;28.40;;;14.80;;
19609;SDS011;9952;47.122;-1.638;2023-02-15T01:50:58;31.27;;;15.13;;
19609;SDS011;9952;47.122;-1.638;2023-02-15T01:55:50;25.33;;;14.70;;
19609;SDS011;9952;47.122;-1.638;2023-02-15T02:00:37;29.67;;;15.47;;
19609;SDS011;9952;47.122;-1.638;2023-02-15T02:05:18;28.90;;;14.70;;
19609;SDS011;9952;47.122;-1.638;2023-02-15T02:09:59;26.27;;;14.57;;
19609;SDS011;9952;47.122;-1.638;2023-02-15T02:14:41;28.03;;;15.07;;
19609;SDS011;9952;47.122;-1.638;2023-02-15T02:29:22;28.63;;;15.43;;
19609;SDS011;9952;47.122;-1.638;2023-02-15T02:34:22;25.77;;;14.20;;
19609;SDS011;9952;47.122;-1.638;2023-02-15T02:44:52;22.93;;;13.17;;
19609;SDS011;9952;47.122;-1.638;2023-02-15T02:49:43;28.80;;;13.30;;
19609;SDS011;9952;47.122;-1.638;2023-02-15T02:54:24;25.97;;;13.27;;
19609;SDS011;9952;47.122;-1.638;2023-02-15T03:03:51;22.73;;;12.37;;
19609;SDS011;9952;47.122;-1.638;2023-02-15T03:08:38;21.93;;;13.03;;
19609;SDS011;9952;47.122;-1.638;2023-02-15T03:13:23;22.57;;;12.80;;
19609;SDS011;9952;47.122;-1.638;2023-02-15T03:18:04;24.33;;;13.27;;
19609;SDS011;9952;47.122;-1.638;2023-02-15T03:22:49;25.23;;;12.97;;
19609;SDS011;9952;47.122;-1.638;2023-02-15T03:27:44;23.63;;;13.10;;
19609;SDS011;9952;47.122;-1.638;2023-02-15T03:32:28;22.83;;;12.53;;
19609;SDS011;9952;47.122;-1.638;2023-02-15T03:42:35;25.23;;;12.97;;
19609;SDS011;9952;47.122;-1.638;2023-02-15T03:47:20;23.67;;;12.40;;
19609;SDS011;9952;47.122;-1.638;2023-02-15T03:52:05;24.27;;;13.10;;
19609;SDS011;9952;47.122;-1.638;2023-02-15T03:56:48;21.03;;;13.67;;
19609;SDS011;9952;47.122;-1.638;2023-02-15T04:02:02;21.87;;;12.33;;
19609;SDS011;9952;47.122;-1.638;2023-02-15T04:07:02;21.37;;;11.70;;
19609;SDS011;9952;47.122;-1.638;2023-02-15T04:11:44;23.20;;;13.20;;
19609;SDS011;9952;47.122;-1.638;2023-02-15T04:16:25;20.73;;;12.43;;
19609;SDS011;9952;47.122;-1.638;2023-02-15T04:21:09;21.63;;;11.67;;
19609;SDS011;9952;47.122;-1.638;2023-02-15T04:26:08;22.73;;;12.60;;
19609;SDS011;9952;47.122;-1.638;2023-02-15T04:30:49;21.90;;;12.47;;
19609;SDS011;9952;47.122;-1.638;2023-02-15T04:35:30;22.00;;;12.00;;
19609;SDS011;9952;47.122;-1.638;2023-02-15T04:40:12;24.67;;;12.50;;
19609;SDS011;9952;47.122;-1.638;2023-02-15T04:44:54;23.97;;;15.33;;
19609;SDS011;9952;47.122;-1.638;2023-02-15T04:49:35;20.50;;;12.47;;
19609;SDS011;9952;47.122;-1.638;2023-02-15T04:54:15;20.73;;;12.17;;
19609;SDS011;9952;47.122;-1.638;2023-02-15T04:58:56;25.63;;;13.63;;
19609;SDS011;9952;47.122;-1.638;2023-02-15T05:03:37;24.83;;;12.70;;
19609;SDS011;9952;47.122;-1.638;2023-02-15T05:08:18;21.00;;;12.50;;
19609;SDS011;9952;47.122;-1.638;2023-02-15T05:12:58;21.57;;;12.00;;
19609;SDS011;9952;47.122;-1.638;2023-02-15T05:17:39;19.40;;;11.90;;
19609;SDS011;9952;47.122;-1.638;2023-02-15T05:22:20;19.87;;;11.87;;
19609;SDS011;9952;47.122;-1.638;2023-02-15T05:27:01;20.50;;;12.60;;
19609;SDS011;9952;47.122;-1.638;2023-02-15T05:32:00;21.07;;;11.83;;
19609;SDS011;9952;47.122;-1.638;2023-02-15T05:36:42;20.27;;;12.07;;
19609;SDS011;9952;47.122;-1.638;2023-02-15T05:41:23;22.20;;;11.97;;
19609;SDS011;9952;47.122;-1.638;2023-02-15T05:46:05;21.97;;;11.77;;
19609;SDS011;9952;47.122;-1.638;2023-02-15T05:50:56;25.47;;;12.53;;
19609;SDS011;9952;47.122;-1.638;2023-02-15T05:55:38;23.20;;;12.20;;
19609;SDS011;9952;47.122;-1.638;2023-02-15T06:00:20;21.27;;;11.50;;
19609;SDS011;9952;47.122;-1.638;2023-02-15T06:05:01;19.87;;;11.90;;
19609;SDS011;9952;47.122;-1.638;2023-02-15T06:09:43;23.17;;;11.97;;
19609;SDS011;9952;47.122;-1.638;2023-02-15T06:14:23;23.03;;;11.67;;
19609;SDS011;9952;47.122;-1.638;2023-02-15T06:19:04;21.03;;;12.00;;
19609;SDS011;9952;47.122;-1.638;2023-02-15T06:23:45;26.03;;;12.80;;
19609;SDS011;9952;47.122;-1.638;2023-02-15T06:28:26;24.87;;;11.73;;
19609;SDS011;9952;47.122;-1.638;2023-02-15T06:33:06;22.80;;;11.93;;
19609;SDS011;9952;47.122;-1.638;2023-02-15T06:37:47;19.73;;;10.63;;
19609;SDS011;9952;47.122;-1.638;2023-02-15T06:42:28;22.60;;;11.67;;
19609;SDS011;9952;47.122;-1.638;2023-02-15T06:47:09;22.50;;;11.90;;
19609;SDS011;9952;47.122;-1.638;2023-02-15T06:51:50;21.10;;;11.67;;
19609;SDS011;9952;47.122;-1.638;2023-02-15T06:56:31;22.57;;;11.50;;
19609;SDS011;9952;47.122;-1.638;2023-02-15T07:01:12;23.27;;;12.70;;
19609;SDS011;9952;47.122;-1.638;2023-02-15T07:05:57;21.73;;;12.07;;
19609;SDS011;9952;47.122;-1.638;2023-02-15T07:10:42;22.50;;;11.97;;
19609;SDS011;9952;47.122;-1.638;2023-02-15T07:15:24;20.10;;;10.93;;
19609;SDS011;9952;47.122;-1.638;2023-02-15T07:20:06;23.33;;;11.50;;
19609;SDS011;9952;47.122;-1.638;2023-02-15T07:24:51;21.43;;;12.40;;
19609;SDS011;9952;47.122;-1.638;2023-02-15T07:29:34;18.43;;;11.00;;
19609;SDS011;9952;47.122;-1.638;2023-02-15T07:34:15;20.73;;;11.77;;
19609;SDS011;9952;47.122;-1.638;2023-02-15T07:38:56;20.37;;;12.17;;
19609;SDS011;9952;47.122;-1.638;2023-02-15T07:43:37;21.77;;;11.87;;
19609;SDS011;9952;47.122;-1.638;2023-02-15T07:48:21;19.90;;;12.10;;
19609;SDS011;9952;47.122;-1.638;2023-02-15T07:53:02;20.90;;;11.93;;
19609;SDS011;9952;47.122;-1.638;2023-02-15T07:57:43;24.07;;;13.23;;
19609;SDS011;9952;47.122;-1.638;2023-02-15T08:02:25;21.27;;;12.33;;
19609;SDS011;9952;47.122;-1.638;2023-02-15T08:07:06;25.30;;;13.13;;
19609;SDS011;9952;47.122;-1.638;2023-02-15T08:11:47;23.87;;;12.73;;
19609;SDS011;9952;47.122;-1.638;2023-02-15T08:21:37;29.47;;;15.70;;
19609;SDS011;9952;47.122;-1.638;2023-02-15T08:26:20;24.97;;;15.30;;
19609;SDS011;9952;47.122;-1.638;2023-02-15T08:31:05;26.13;;;14.80;;
19609;SDS011;9952;47.122;-1.638;2023-02-15T08:35:47;26.27;;;14.57;;
19609;SDS011;9952;47.122;-1.638;2023-02-15T08:40:28;24.03;;;14.50;;
19609;SDS011;9952;47.122;-1.638;2023-02-15T08:45:08;23.33;;;14.53;;
19609;SDS011;9952;47.122;-1.638;2023-02-15T08:49:49;26.67;;;14.37;;
19609;SDS011;9952;47.122;-1.638;2023-02-15T08:54:31;25.50;;;14.10;;
19609;SDS011;9952;47.122;-1.638;2023-02-15T08:59:14;26.27;;;13.83;;
19609;SDS011;9952;47.122;-1.638;2023-02-15T09:04:06;21.07;;;13.33;;
19609;SDS011;9952;47.122;-1.638;2023-02-15T09:08:50;22.30;;;12.67;;
19609;SDS011;9952;47.122;-1.638;2023-02-15T09:13:32;18.73;;;12.33;;
19609;SDS011;9952;47.122;-1.638;2023-02-15T09:18:14;24.40;;;12.27;;
19609;SDS011;9952;47.122;-1.638;2023-02-15T09:22:57;19.47;;;11.30;;
19609;SDS011;9952;47.122;-1.638;2023-02-15T09:27:37;19.30;;;10.90;;
19609;SDS011;9952;47.122;-1.638;2023-02-15T09:32:19;16.10;;;10.83;;
19609;SDS011;9952;47.122;-1.638;2023-02-15T09:37:00;21.40;;;11.57;;
19609;SDS011;9952;47.122;-1.638;2023-02-15T09:51:31;17.00;;;10.27;;
19609;SDS011;9952;47.122;-1.638;2023-02-15T09:56:49;16.83;;;10.17;;
19609;SDS011;9952;47.122;-1.638;2023-02-15T10:06:58;16.70;;;10.60;;
19609;SDS011;9952;47.122;-1.638;2023-02-15T10:16:56;15.37;;;10.77;;
19609;SDS011;9952;47.122;-1.638;2023-02-15T10:21:58;16.03;;;10.30;;
19609;SDS011;9952;47.122;-1.638;2023-02-15T10:26:50;17.63;;;10.23;;
19609;SDS011;9952;47.122;-1.638;2023-02-15T10:36:44;14.53;;;9.63;;
19609;SDS011;9952;47.122;-1.638;2023-02-15T10:41:51;15.57;;;9.60;;
19609;SDS011;9952;47.122;-1.638;2023-02-15T10:51:44;15.40;;;9.13;;
19609;SDS011;9952;47.122;-1.638;2023-02-15T10:56:50;14.13;;;8.87;;
19609;SDS011;9952;47.122;-1.638;2023-02-15T11:01:53;18.73;;;9.23;;
19609;SDS011;9952;47.122;-1.638;2023-02-15T11:06:39;13.43;;;8.90;;
19609;SDS011;9952;47.122;-1.638;2023-02-15T11:11:32;15.20;;;8.80;;
19609;SDS011;9952;47.122;-1.638;2023-02-15T11:16:30;14.63;;;8.73;;
19609;SDS011;9952;47.122;-1.638;2023-02-15T11:26:24;18.43;;;9.03;;
19609;SDS011;9952;47.122;-1.638;2023-02-15T11:31:26;15.27;;;9.20;;
19609;SDS011;9952;47.122;-1.638;2023-02-15T11:36:17;15.80;;;8.77;;
19609;SDS011;9952;47.122;-1.638;2023-02-15T11:41:14;12.67;;;8.80;;
19609;SDS011;9952;47.122;-1.638;2023-02-15T11:46:00;15.60;;;7.90;;
19609;SDS011;9952;47.122;-1.638;2023-02-15T11:50:42;12.10;;;8.57;;
19609;SDS011;9952;47.122;-1.638;2023-02-15T11:55:24;16.77;;;8.77;;
19609;SDS011;9952;47.122;-1.638;2023-02-15T12:04:54;13.80;;;8.07;;
19609;SDS011;9952;47.122;-1.638;2023-02-15T12:14:46;15.90;;;8.73;;
19609;SDS011;9952;47.122;-1.638;2023-02-15T12:24:19;14.30;;;8.50;;
19609;SDS011;9952;47.122;-1.638;2023-02-15T12:29:12;12.20;;;8.33;;
19609;SDS011;9952;47.122;-1.638;2023-02-15T12:33:57;14.43;;;8.27;;
19609;SDS011;9952;47.122;-1.638;2023-02-15T12:38:42;13.57;;;8.47;;
19609;SDS011;9952;47.122;-1.638;2023-02-15T12:43:27;13.60;;;8.33;;
19609;SDS011;9952;47.122;-1.638;2023-02-15T12:48:15;15.20;;;9.13;;
19609;SDS011;9952;47.122;-1.638;2023-02-15T12:58:06;17.40;;;8.70;;
19609;SDS011;9952;47.122;-1.638;2023-02-15T13:03:02;17.60;;;9.03;;
19609;SDS011;9952;47.122;-1.638;2023-02-15T13:07:50;14.70;;;8.90;;
19609;SDS011;9952;47.122;-1.638;2023-02-15T13:12:34;13.90;;;9.30;;
19609;SDS011;9952;47.122;-1.638;2023-02-15T13:17:15;15.73;;;8.80;;
19609;SDS011;9952;47.122;-1.638;2023-02-15T13:21:57;18.27;;;9.33;;
19609;SDS011;9952;47.122;-1.638;2023-02-15T13:26:41;13.27;;;8.43;;
19609;SDS011;9952;47.122;-1.638;2023-02-15T13:31:26;15.97;;;8.90;;
19609;SDS011;9952;47.122;-1.638;2023-02-15T13:36:14;19.87;;;9.50;;
19609;SDS011;9952;47.122;-1.638;2023-02-15T13:41:04;14.43;;;9.27;;
19609;SDS011;9952;47.122;-1.638;2023-02-15T13:56:06;15.87;;;8.57;;
19609;SDS011;9952;47.122;-1.638;2023-02-15T14:00:59;14.47;;;8.60;;
19609;SDS011;9952;47.122;-1.638;2023-02-15T14:16:00;13.47;;;9.00;;
19609;SDS011;9952;47.122;-1.638;2023-02-15T14:25:49;18.20;;;9.27;;
19609;SDS011;9952;47.122;-1.638;2023-02-15T14:30:39;13.43;;;8.70;;
19609;SDS011;9952;47.122;-1.638;2023-02-15T14:35:26;13.53;;;8.13;;
19609;SDS011;9952;47.122;-1.638;2023-02-15T14:45:54;12.63;;;8.37;;
19609;SDS011;9952;47.122;-1.638;2023-02-15T14:50:42;15.80;;;8.40;;
19609;SDS011;9952;47.122;-1.638;2023-02-15T14:55:35;12.80;;;8.07;;
19609;SDS011;9952;47.122;-1.638;2023-02-15T15:00:28;17.77;;;8.70;;
19609;SDS011;9952;47.122;-1.638;2023-02-15T15:05:20;13.10;;;7.83;;
19609;SDS011;9952;47.122;-1.638;2023-02-15T15:15:06;14.43;;;7.50;;
19609;SDS011;9952;47.122;-1.638;2023-02-15T15:29:31;13.80;;;6.67;;
19609;SDS011;9952;47.122;-1.638;2023-02-15T15:49:57;11.97;;;5.93;;
19609;SDS011;9952;47.122;-1.638;2023-02-15T15:54:39;14.00;;;6.50;;
19609;SDS011;9952;47.122;-1.638;2023-02-15T15:59:22;9.60;;;5.30;;
19609;SDS011;9952;47.122;-1.638;2023-02-15T16:04:12;15.80;;;6.60;;
19609;SDS011;9952;47.122;-1.638;2023-02-15T16:09:18;15.50;;;6.30;;
19609;SDS011;9952;47.122;-1.638;2023-02-15T16:13:59;15.17;;;6.27;;
19609;SDS011;9952;47.122;-1.638;2023-02-15T16:18:40;16.23;;;7.17;;
19609;SDS011;9952;47.122;-1.638;2023-02-15T16:28:26;13.10;;;6.20;;
19609;SDS011;9952;47.122;-1.638;2023-02-15T16:33:09;15.70;;;6.57;;
19609;SDS011;9952;47.122;-1.638;2023-02-15T16:37:57;12.67;;;6.23;;
19609;SDS011;9952;47.122;-1.638;2023-02-15T16:42:38;14.87;;;6.93;;
19609;SDS011;9952;47.122;-1.638;2023-02-15T16:47:26;16.67;;;6.77;;
19609;SDS011;9952;47.122;-1.638;2023-02-15T16:52:10;16.17;;;6.87;;
19609;SDS011;9952;47.122;-1.638;2023-02-15T16:57:04;13.70;;;6.53;;
19609;SDS011;9952;47.122;-1.638;2023-02-15T17:01:45;13.20;;;6.20;;
19609;SDS011;9952;47.122;-1.638;2023-02-15T17:06:26;14.13;;;7.33;;
19609;SDS011;9952;47.122;-1.638;2023-02-15T17:11:13;15.20;;;6.57;;
19609;SDS011;9952;47.122;-1.638;2023-02-15T17:20:39;15.70;;;6.63;;
19609;SDS011;9952;47.122;-1.638;2023-02-15T17:25:25;12.47;;;7.40;;
19609;SDS011;9952;47.122;-1.638;2023-02-15T17:30:14;16.73;;;7.23;;
19609;SDS011;9952;47.122;-1.638;2023-02-15T17:39:59;49.87;;;24.77;;
19609;SDS011;9952;47.122;-1.638;2023-02-15T17:44:42;14.77;;;8.60;;
19609;SDS011;9952;47.122;-1.638;2023-02-15T17:49:24;35.50;;;17.80;;
19609;SDS011;9952;47.122;-1.638;2023-02-15T17:54:14;25.03;;;12.27;;
19609;SDS011;9952;47.122;-1.638;2023-02-15T17:59:13;20.13;;;10.27;;
19609;SDS011;9952;47.122;-1.638;2023-02-15T18:03:54;30.07;;;10.50;;
19609;SDS011;9952;47.122;-1.638;2023-02-15T18:08:54;18.13;;;9.53;;
19609;SDS011;9952;47.122;-1.638;2023-02-15T18:13:53;21.00;;;10.70;;
19609;SDS011;9952;47.122;-1.638;2023-02-15T18:18:36;26.63;;;14.07;;
19609;SDS011;9952;47.122;-1.638;2023-02-15T18:23:17;35.93;;;16.37;;
19609;SDS011;9952;47.122;-1.638;2023-02-15T18:27:58;22.20;;;10.03;;
19609;SDS011;9952;47.122;-1.638;2023-02-15T18:32:39;27.50;;;11.43;;
19609;SDS011;9952;47.122;-1.638;2023-02-15T18:37:21;23.90;;;10.37;;
19609;SDS011;9952;47.122;-1.638;2023-02-15T18:42:04;19.20;;;9.37;;
19609;SDS011;9952;47.122;-1.638;2023-02-15T18:46:46;23.00;;;10.00;;
19609;SDS011;9952;47.122;-1.638;2023-02-15T18:51:27;19.47;;;8.77;;
19609;SDS011;9952;47.122;-1.638;2023-02-15T18:56:15;17.70;;;8.80;;
19609;SDS011;9952;47.122;-1.638;2023-02-15T19:00:57;21.17;;;9.17;;
19609;SDS011;9952;47.122;-1.638;2023-02-15T19:05:48;23.37;;;12.57;;
19609;SDS011;9952;47.122;-1.638;2023-02-15T19:10:30;30.97;;;16.53;;
19609;SDS011;9952;47.122;-1.638;2023-02-15T19:15:19;28.17;;;15.73;;
19609;SDS011;9952;47.122;-1.638;2023-02-15T19:20:02;36.63;;;19.00;;
19609;SDS011;9952;47.122;-1.638;2023-02-15T19:24:44;27.07;;;15.87;;
19609;SDS011;9952;47.122;-1.638;2023-02-15T19:29:26;31.60;;;16.57;;
19609;SDS011;9952;47.122;-1.638;2023-02-15T19:34:13;26.73;;;14.40;;
19609;SDS011;9952;47.122;-1.638;2023-02-15T19:38:56;35.03;;;16.97;;
19609;SDS011;9952;47.122;-1.638;2023-02-15T19:43:36;31.43;;;18.33;;
19609;SDS011;9952;47.122;-1.638;2023-02-15T19:48:17;31.50;;;16.90;;
19609;SDS011;9952;47.122;-1.638;2023-02-15T19:52:58;29.90;;;16.97;;
19609;SDS011;9952;47.122;-1.638;2023-02-15T19:57:41;21.20;;;12.27;;
19609;SDS011;9952;47.122;-1.638;2023-02-15T20:02:22;22.20;;;12.47;;
19609;SDS011;9952;47.122;-1.638;2023-02-15T20:07:03;25.60;;;12.70;;
19609;SDS011;9952;47.122;-1.638;2023-02-15T20:11:54;32.47;;;13.67;;
19609;SDS011;9952;47.122;-1.638;2023-02-15T20:16:36;25.17;;;12.17;;
19609;SDS011;9952;47.122;-1.638;2023-02-15T20:21:16;22.40;;;13.83;;
19609;SDS011;9952;47.122;-1.638;2023-02-15T20:25:59;27.57;;;14.03;;
19609;SDS011;9952;47.122;-1.638;2023-02-15T20:31:00;29.53;;;16.60;;
19609;SDS011;9952;47.122;-1.638;2023-02-15T20:35:41;48.00;;;25.67;;
19609;SDS011;9952;47.122;-1.638;2023-02-15T20:40:24;45.40;;;24.37;;
19609;SDS011;9952;47.122;-1.638;2023-02-15T20:45:18;47.67;;;23.87;;
19609;SDS011;9952;47.122;-1.638;2023-02-15T20:50:10;37.57;;;21.50;;
19609;SDS011;9952;47.122;-1.638;2023-02-15T20:54:51;38.87;;;21.30;;
19609;SDS011;9952;47.122;-1.638;2023-02-15T20:59:32;34.93;;;18.07;;
19609;SDS011;9952;47.122;-1.638;2023-02-15T21:04:24;27.33;;;15.50;;
19609;SDS011;9952;47.122;-1.638;2023-02-15T21:09:14;33.30;;;15.83;;
19609;SDS011;9952;47.122;-1.638;2023-02-15T21:13:55;35.33;;;19.50;;
19609;SDS011;9952;47.122;-1.638;2023-02-15T21:18:36;34.10;;;19.57;;
19609;SDS011;9952;47.122;-1.638;2023-02-15T21:23:20;34.73;;;17.93;;
19609;SDS011;9952;47.122;-1.638;2023-02-15T21:28:03;30.63;;;16.97;;
19609;SDS011;9952;47.122;-1.638;2023-02-15T21:32:47;31.43;;;18.87;;
19609;SDS011;9952;47.122;-1.638;2023-02-15T21:37:31;32.00;;;18.83;;
19609;SDS011;9952;47.122;-1.638;2023-02-15T21:42:14;29.43;;;16.67;;
19609;SDS011;9952;47.122;-1.638;2023-02-15T21:47:17;34.57;;;17.70;;
19609;SDS011;9952;47.122;-1.638;2023-02-15T21:52:21;31.40;;;16.93;;
19609;SDS011;9952;47.122;-1.638;2023-02-15T21:57:03;31.40;;;15.47;;
19609;SDS011;9952;47.122;-1.638;2023-02-15T22:01:44;28.03;;;13.93;;
19609;SDS011;9952;47.122;-1.638;2023-02-15T22:06:28;29.23;;;14.97;;
19609;SDS011;9952;47.122;-1.638;2023-02-15T22:11:10;25.03;;;13.80;;
19609;SDS011;9952;47.122;-1.638;2023-02-15T22:15:52;26.73;;;13.20;;
19609;SDS011;9952;47.122;-1.638;2023-02-15T22:20:34;24.67;;;13.30;;
19609;SDS011;9952;47.122;-1.638;2023-02-15T22:25:16;21.97;;;13.60;;
19609;SDS011;9952;47.122;-1.638;2023-02-15T22:29:59;23.50;;;12.63;;
19609;SDS011;9952;47.122;-1.638;2023-02-15T22:34:40;24.37;;;13.13;;
19609;SDS011;9952;47.122;-1.638;2023-02-15T22:39:20;24.53;;;13.00;;
19609;SDS011;9952;47.122;-1.638;2023-02-15T22:44:03;20.43;;;12.37;;
19609;SDS011;9952;47.122;-1.638;2023-02-15T22:48:44;19.50;;;10.80;;
19609;SDS011;9952;47.122;-1.638;2023-02-15T22:53:27;26.93;;;11.30;;
19609;SDS011;9952;47.122;-1.638;2023-02-15T22:58:08;24.13;;;11.77;;
19609;SDS011;9952;47.122;-1.638;2023-02-15T23:02:56;28.73;;;12.20;;
19609;SDS011;9952;47.122;-1.638;2023-02-15T23:07:37;33.67;;;13.93;;
19609;SDS011;9952;47.122;-1.638;2023-02-15T23:12:21;46.87;;;16.53;;
19609;SDS011;9952;47.122;-1.638;2023-02-15T23:17:04;46.13;;;18.00;;
19609;SDS011;9952;47.122;-1.638;2023-02-15T23:21:44;53.20;;;18.87;;
19609;SDS011;9952;47.122;-1.638;2023-02-15T23:26:26;37.80;;;17.20;;
19609;SDS011;9952;47.122;-1.638;2023-02-15T23:31:17;62.80;;;17.97;;
19609;SDS011;9952;47.122;-1.638;2023-02-15T23:36:02;41.07;;;16.53;;
19609;SDS011;9952;47.122;-1.638;2023-02-15T23:40:45;39.60;;;16.57;;
19609;SDS011;9952;47.122;-1.638;2023-02-15T23:45:48;34.37;;;16.60;;
19609;SDS011;9952;47.122;-1.638;2023-02-15T23:50:29;29.10;;;15.33;;
19609;SDS011;9952;47.122;-1.638;2023-02-15T23:55:13;29.33;;;15.33;;
19609;SDS011;9952;47.122;-1.638;2023-02-15T23:59:54;28.03;;;15.53;;
